This is the latest recevied weather packets stored in our database for station/object SP5XSL-4. If no packets are shown the sender has not sent any weather packets the latest 1 day(s).
| Time | Temp. | Humidity | Pressure | Rain* | Wind** | Luminosity | Snow |
|---|---|---|---|---|---|---|---|
| 1836274376 | 13.89° C | - | 1028.9 hPa | - | 1.79 m/s, 142° | - | - |
| 1836274236 | 13.89° C | - | 1028.8 hPa | - | 1.79 m/s, 141° | - | - |
| 1778019346 | 10.56° C | - | 1014 hPa | - | 7.15 m/s, 18° | - | - |
| 1778018865 | 10.56° C | - | 1014.1 hPa | - | 5.81 m/s, 29° | - | - |
| 1778018376 | 10.56° C | - | 1014 hPa | - | 4.02 m/s, 336° | - | - |
| 1778017835 | 10.56° C | - | 1014.3 hPa | - | 5.81 m/s, 139° | - | - |
| 1778017276 | 10.56° C | - | 1014.1 hPa | - | 5.81 m/s, 306° | - | - |
| 1778016747 | 11.11° C | - | 1014.2 hPa | - | 0.89 m/s, 127° | - | - |
| 1778016196 | 11.11° C | - | 1014.3 hPa | - | 4.02 m/s, 297° | - | - |
| 1778015670 | 11.11° C | - | 1014.2 hPa | - | 5.81 m/s, 336° | - | - |
| 1778015107 | 11.11° C | - | 1014.1 hPa | - | 5.81 m/s, 277° | - | - |
| 1778014465 | 11.11° C | - | 1014.4 hPa | - | 7.15 m/s, 311° | - | - |
| 1778013902 | 11.11° C | - | 1014.4 hPa | - | 4.92 m/s, 292° | - | - |
| 1778013352 | 11.67° C | - | 1014.4 hPa | - | 8.94 m/s, 352° | - | - |
| 1778012742 | 11.67° C | - | 1014.1 hPa | - | 5.81 m/s, 57° | - | - |
| 1778012162 | 11.67° C | - | 1014.4 hPa | - | 7.15 m/s, 1° | - | - |
| 1778011602 | 11.67° C | - | 1014.2 hPa | - | 4.92 m/s, 289° | - | - |
| 1778010985 | 12.22° C | - | 1013.9 hPa | - | 7.15 m/s, 61° | - | - |
| 1778010435 | 12.22° C | - | 1014.2 hPa | - | 4.92 m/s, 2° | - | - |
| 1778009850 | 12.78° C | - | 1014.2 hPa | - | 5.81 m/s, 332° | - | - |
| 1778009282 | 12.78° C | - | 1014.3 hPa | - | 4.92 m/s, 305° | - | - |
| 1778008715 | 13.33° C | - | 1014.3 hPa | - | 4.02 m/s, 259° | - | - |
| 1778008121 | 13.33° C | - | 1014.2 hPa | - | 7.15 m/s, 1° | - | - |
| 1778007542 | 13.89° C | - | 1014.4 hPa | - | 7.15 m/s, 3° | - | - |
| 1778006955 | 14.44° C | - | 1014.2 hPa | - | 4.92 m/s, 321° | - | - |
* Rain since midnight (hover to see other rain measurements)
** Current wind speed in m/s (hover to see current wind gust speed)